Time;durP1;ratioP1;P1;durP2;ratioP2;P2;SDS_P1;SDS_P2;PMS_P1;PMS_P2;Temp;Humidity;BMP_temperature;BMP_pressure;BME280_temperature;BME280_humidity;BME280_pressure;Samples;Min_cycle;Max_cycle;Signal;HPM_P1;HPM_P2
2023/10/07 00:00:32;;;;;;;9.95;3.30;;;17.70;99.90;;;;;;5031221;28;20179;-73
2023/10/07 00:03:00;;;;;;;14.27;3.65;;;17.70;99.90;;;;;;5032040;28;20049;-72
2023/10/07 00:05:32;;;;;;;14.80;3.58;;;17.70;99.90;;;;;;5031099;28;20049;-72
2023/10/07 00:08:03;;;;;;;13.40;3.50;;;17.70;99.90;;;;;;5031559;28;20084;-72
2023/10/07 00:10:30;;;;;;;10.15;3.47;;;17.60;99.90;;;;;;5031558;28;20469;-72
2023/10/07 00:13:00;;;;;;;16.25;4.47;;;17.70;99.90;;;;;;5031937;28;20122;-72
2023/10/07 00:15:29;;;;;;;18.02;4.22;;;17.60;99.90;;;;;;5032243;28;20060;-72
2023/10/07 00:18:14;;;;;;;14.15;4.05;;;17.60;99.90;;;;;;5030821;28;20034;-72
2023/10/07 00:20:52;;;;;;;10.68;3.42;;;17.60;99.90;;;;;;5031441;28;20049;-72
2023/10/07 00:23:22;;;;;;;12.73;4.20;;;17.60;99.90;;;;;;5032019;28;20049;-72
2023/10/07 00:25:53;;;;;;;10.18;3.60;;;17.60;99.90;;;;;;5030646;28;20104;-72
2023/10/07 00:28:28;;;;;;;11.85;3.88;;;17.60;99.90;;;;;;5031961;28;20115;-72
2023/10/07 00:31:01;;;;;;;15.75;3.78;;;17.50;99.90;;;;;;5031377;28;20042;-72
2023/10/07 00:33:27;;;;;;;14.15;3.63;;;17.50;99.90;;;;;;5031183;28;20076;-72
2023/10/07 00:35:53;;;;;;;15.13;3.58;;;17.50;99.90;;;;;;5031466;28;20489;-72
2023/10/07 00:38:37;;;;;;;17.23;4.80;;;17.50;99.90;;;;;;5031675;28;20514;-72
2023/10/07 00:41:03;;;;;;;12.10;3.67;;;17.50;99.90;;;;;;5032120;28;20044;-73
2023/10/07 00:43:32;;;;;;;12.07;3.40;;;17.40;99.90;;;;;;5031465;28;20062;-73
2023/10/07 00:46:11;;;;;;;12.13;3.50;;;17.50;99.90;;;;;;5030388;28;20059;-73
2023/10/07 00:48:42;;;;;;;17.20;4.07;;;17.40;99.90;;;;;;5031457;28;20045;-73
2023/10/07 00:51:11;;;;;;;12.98;3.90;;;17.40;99.90;;;;;;5030928;28;20056;-74
2023/10/07 00:54:07;;;;;;;15.13;3.88;;;17.40;99.90;;;;;;5030618;28;20037;-74
2023/10/07 00:56:27;;;;;;;10.63;3.75;;;17.40;99.90;;;;;;5029732;28;20444;-74
2023/10/07 00:58:54;;;;;;;15.32;3.25;;;17.40;99.90;;;;;;5028203;28;20102;-74
2023/10/07 01:01:21;;;;;;;11.85;3.38;;;17.40;99.90;;;;;;5030850;28;20054;-73
2023/10/07 01:03:47;;;;;;;12.45;3.25;;;17.40;99.90;;;;;;5032743;28;20041;-73
2023/10/07 01:06:25;;;;;;;13.68;3.45;;;17.50;99.90;;;;;;5032118;28;20041;-74
2023/10/07 01:09:08;;;;;;;12.35;3.63;;;17.50;99.90;;;;;;5029954;28;20049;-74
2023/10/07 01:11:40;;;;;;;11.63;3.92;;;17.50;99.90;;;;;;5032099;28;20061;-74
2023/10/07 01:14:11;;;;;;;15.13;3.33;;;17.60;99.90;;;;;;5034125;28;20045;-74
2023/10/07 01:16:42;;;;;;;14.48;3.50;;;17.50;99.90;;;;;;5036422;28;20452;-74
2023/10/07 01:22:09;;;;;;;11.90;3.30;;;17.50;99.90;;;;;;5034526;28;20041;-74
2023/10/07 01:30:14;;;;;;;14.82;3.95;;;17.40;99.90;;;;;;5034068;28;20053;-74
2023/10/07 01:32:49;;;;;;;12.55;3.50;;;17.40;99.90;;;;;;5035040;28;20057;-74
2023/10/07 01:35:25;;;;;;;13.82;3.25;;;17.40;99.90;;;;;;5034380;28;20077;-73
2023/10/07 01:38:27;;;;;;;16.83;3.88;;;17.40;99.90;;;;;;5034734;28;20073;-73
2023/10/07 01:43:17;;;;;;;15.40;3.42;;;17.40;99.90;;;;;;5033705;28;20489;-73
2023/10/07 01:45:43;;;;;;;13.73;3.40;;;17.40;99.90;;;;;;5034414;28;20056;-73
2023/10/07 01:48:08;;;;;;;17.75;3.90;;;17.40;99.90;;;;;;5034208;28;20049;-74
2023/10/07 01:50:41;;;;;;;11.38;3.70;;;17.40;99.90;;;;;;5035352;28;20552;-73
2023/10/07 01:53:07;;;;;;;19.13;4.07;;;17.40;99.90;;;;;;5034390;28;20192;-73
2023/10/07 01:55:42;;;;;;;10.70;3.38;;;17.40;99.90;;;;;;5034515;28;20042;-74
2023/10/07 01:58:15;;;;;;;13.63;3.30;;;17.40;99.90;;;;;;5033469;28;20037;-73
2023/10/07 02:00:46;;;;;;;14.05;3.78;;;17.40;99.90;;;;;;5034366;28;20050;-73
2023/10/07 02:03:16;;;;;;;13.68;3.70;;;17.40;99.90;;;;;;5033796;28;20493;-74
2023/10/07 02:05:47;;;;;;;13.50;3.35;;;17.40;99.90;;;;;;5034225;28;20140;-74
2023/10/07 02:08:20;;;;;;;19.35;3.50;;;17.50;99.90;;;;;;5033997;28;20080;-74
2023/10/07 02:10:47;;;;;;;15.63;3.90;;;17.50;99.90;;;;;;5033712;28;20099;-73
2023/10/07 02:13:20;;;;;;;14.00;3.63;;;17.40;99.90;;;;;;5034109;28;20037;-74
2023/10/07 02:15:51;;;;;;;15.77;3.92;;;17.40;99.90;;;;;;5034198;28;20064;-73
2023/10/07 02:18:18;;;;;;;19.08;4.05;;;17.40;99.90;;;;;;5033536;28;20053;-73
2023/10/07 02:20:53;;;;;;;12.32;3.83;;;17.40;99.90;;;;;;5033873;28;20049;-74
2023/10/07 02:23:36;;;;;;;16.30;3.70;;;17.40;99.90;;;;;;5033447;28;20128;-73
2023/10/07 02:26:23;;;;;;;14.63;3.80;;;17.40;99.90;;;;;;5032845;28;20049;-73
2023/10/07 02:28:51;;;;;;;13.40;3.53;;;17.50;99.90;;;;;;5033272;28;20119;-73
2023/10/07 02:31:20;;;;;;;19.48;4.00;;;17.40;99.90;;;;;;5033160;28;20037;-73
2023/10/07 02:33:57;;;;;;;13.27;3.83;;;17.40;99.90;;;;;;5034034;28;20045;-73
2023/10/07 02:36:31;;;;;;;12.98;3.50;;;17.40;99.90;;;;;;5033683;28;20106;-73
2023/10/07 02:39:18;;;;;;;15.52;3.47;;;17.50;99.90;;;;;;5032772;28;20045;-73
2023/10/07 02:41:48;;;;;;;14.90;3.92;;;17.50;99.90;;;;;;5033742;28;20525;-74
2023/10/07 02:44:27;;;;;;;15.70;3.80;;;17.40;99.90;;;;;;5033614;28;20034;-73
2023/10/07 02:47:09;;;;;;;13.82;3.97;;;17.40;99.90;;;;;;5032360;28;20057;-74
2023/10/07 02:49:39;;;;;;;18.23;3.92;;;17.40;99.90;;;;;;5033574;28;20099;-73
2023/10/07 02:52:05;;;;;;;13.23;3.80;;;17.50;99.90;;;;;;5033273;28;20081;-73
2023/10/07 02:54:34;;;;;;;15.00;4.10;;;17.40;99.90;;;;;;5032564;28;20041;-73
2023/10/07 02:59:35;;;;;;;18.38;3.50;;;17.50;99.90;;;;;;5032934;28;20061;-73
2023/10/07 03:04:44;;;;;;;18.25;3.90;;;17.50;99.90;;;;;;5048384;28;20095;-73
2023/10/07 03:07:13;;;;;;;17.10;4.57;;;17.50;99.90;;;;;;5052291;28;20095;-73
2023/10/07 03:10:05;;;;;;;14.18;4.10;;;17.40;99.90;;;;;;5053214;28;20037;-73
2023/10/07 03:12:30;;;;;;;15.40;3.85;;;17.50;99.90;;;;;;5053168;28;20049;-73
2023/10/07 03:14:58;;;;;;;13.82;4.10;;;17.40;99.90;;;;;;5051974;28;20037;-74
2023/10/07 03:17:33;;;;;;;16.95;3.75;;;17.50;99.90;;;;;;5038309;28;20060;-73
2023/10/07 03:20:24;;;;;;;13.80;3.70;;;17.40;99.90;;;;;;5032692;28;20045;-73
2023/10/07 03:25:48;;;;;;;11.02;3.50;;;17.40;99.90;;;;;;5032771;28;20513;-73
2023/10/07 03:28:19;;;;;;;14.10;3.70;;;17.40;99.90;;;;;;5031878;28;20045;-73
2023/10/07 03:30:55;;;;;;;10.80;3.50;;;17.40;99.90;;;;;;5032620;28;20090;-73
2023/10/07 03:33:23;;;;;;;14.40;3.67;;;17.50;99.90;;;;;;5030776;28;20083;-74
2023/10/07 03:38:25;;;;;;;11.50;3.45;;;17.50;99.90;;;;;;5032439;28;20041;-79
2023/10/07 03:40:54;;;;;;;13.15;3.30;;;17.50;99.90;;;;;;5031942;28;20079;-73
2023/10/07 03:43:22;;;;;;;12.55;3.92;;;17.50;99.90;;;;;;5031332;28;20377;-73
2023/10/07 03:45:48;;;;;;;24.55;4.18;;;17.50;99.90;;;;;;5031953;28;20444;-74
2023/10/07 03:48:23;;;;;;;18.08;3.70;;;17.40;99.90;;;;;;5029206;28;20045;-73
2023/10/07 03:51:09;;;;;;;13.85;3.60;;;17.40;99.90;;;;;;5029233;28;20080;-73
2023/10/07 03:53:44;;;;;;;15.05;3.72;;;17.40;99.90;;;;;;5032406;28;20037;-74
2023/10/07 03:56:16;;;;;;;15.43;3.90;;;17.40;99.90;;;;;;5031516;28;20051;-73
2023/10/07 03:58:53;;;;;;;14.63;3.95;;;17.40;99.90;;;;;;5032023;28;20089;-74
2023/10/07 04:01:18;;;;;;;11.60;3.63;;;17.40;99.90;;;;;;5032044;28;20049;-73
2023/10/07 04:03:50;;;;;;;14.55;3.90;;;17.40;99.90;;;;;;5031435;28;20038;-73
2023/10/07 04:06:17;;;;;;;18.88;4.00;;;17.40;99.90;;;;;;5032046;28;20489;-73
2023/10/07 04:08:56;;;;;;;14.77;3.28;;;17.40;99.90;;;;;;5031931;28;20033;-73
2023/10/07 04:11:26;;;;;;;13.90;3.22;;;17.40;99.90;;;;;;5031406;28;20141;-74
2023/10/07 04:13:55;;;;;;;11.57;3.40;;;17.30;99.90;;;;;;5031527;28;20047;-73
2023/10/07 04:16:23;;;;;;;16.98;3.83;;;17.40;99.90;;;;;;5030977;28;20401;-74
2023/10/07 04:19:01;;;;;;;12.65;3.70;;;17.30;99.90;;;;;;5030101;28;20073;-73
2023/10/07 04:21:29;;;;;;;12.00;3.08;;;17.30;99.90;;;;;;5030939;28;20265;-73
2023/10/07 04:23:54;;;;;;;17.58;3.58;;;17.30;99.90;;;;;;5028195;28;20508;-74
2023/10/07 04:26:20;;;;;;;14.32;3.28;;;17.40;99.90;;;;;;5029217;28;20042;-74
2023/10/07 04:28:48;;;;;;;13.65;3.40;;;17.40;99.90;;;;;;5029392;28;20044;-73
2023/10/07 04:31:17;;;;;;;12.48;3.30;;;17.40;99.90;;;;;;5030612;28;20519;-74
2023/10/07 04:33:53;;;;;;;11.23;3.42;;;17.40;99.90;;;;;;5030131;28;20084;-74
2023/10/07 04:37:00;;;;;;;14.57;3.22;;;17.40;99.90;;;;;;5031450;28;20049;-74
2023/10/07 04:39:26;;;;;;;12.00;3.50;;;17.40;99.90;;;;;;5030866;28;20053;-74
2023/10/07 04:41:57;;;;;;;13.18;3.20;;;17.40;99.90;;;;;;5032722;28;20060;-75
2023/10/07 04:45:23;;;;;;;17.75;3.30;;;17.30;99.90;;;;;;5029324;28;20114;-73
2023/10/07 04:52:27;;;;;;;11.10;2.83;;;17.40;99.90;;;;;;5019757;28;20603;-73
2023/10/07 04:54:53;;;;;;;16.17;3.47;;;17.30;99.90;;;;;;5031136;28;20453;-74
2023/10/07 04:57:39;;;;;;;13.65;3.00;;;17.30;99.90;;;;;;5031316;28;20504;-74
2023/10/07 05:00:09;;;;;;;11.70;2.88;;;17.20;99.90;;;;;;5030237;28;20057;-73
2023/10/07 05:02:35;;;;;;;11.90;3.22;;;17.20;99.90;;;;;;5031155;28;20049;-74
2023/10/07 05:05:10;;;;;;;14.95;3.28;;;17.10;99.90;;;;;;5030148;28;20073;-73
2023/10/07 05:07:38;;;;;;;10.88;2.70;;;17.20;99.90;;;;;;5010679;28;20057;-74
2023/10/07 05:10:08;;;;;;;14.00;3.25;;;17.20;99.90;;;;;;5011284;28;20041;-73
2023/10/07 05:12:34;;;;;;;12.90;3.00;;;17.20;99.90;;;;;;5011929;28;20124;-74
2023/10/07 05:15:05;;;;;;;14.60;3.00;;;17.20;99.90;;;;;;5030101;28;20595;-73
2023/10/07 05:17:36;;;;;;;14.20;3.05;;;17.20;99.90;;;;;;5031475;28;20103;-73
2023/10/07 05:20:06;;;;;;;14.15;2.72;;;17.20;99.90;;;;;;5030402;28;20393;-74
2023/10/07 05:22:31;;;;;;;12.32;2.83;;;17.20;99.90;;;;;;5030856;28;20053;-73
2023/10/07 05:24:59;;;;;;;15.02;3.10;;;17.20;99.90;;;;;;5029657;28;20050;-73
2023/10/07 05:27:25;;;;;;;12.55;2.90;;;17.30;99.90;;;;;;5030415;28;20088;-74
2023/10/07 05:29:51;;;;;;;10.50;2.78;;;17.30;99.90;;;;;;5030728;28;20049;-73
2023/10/07 05:32:17;;;;;;;10.65;2.78;;;17.30;99.90;;;;;;5029912;28;20078;-75
2023/10/07 05:34:45;;;;;;;15.95;3.80;;;17.20;99.90;;;;;;5029719;28;20042;-75
2023/10/07 05:37:12;;;;;;;11.10;3.10;;;17.20;99.90;;;;;;5030580;28;20056;-75
2023/10/07 05:39:41;;;;;;;14.95;3.50;;;17.20;99.90;;;;;;5030499;28;20046;-75
2023/10/07 05:42:07;;;;;;;11.00;3.05;;;17.20;99.90;;;;;;5030158;28;20064;-76
2023/10/07 05:44:35;;;;;;;12.13;2.80;;;17.20;99.90;;;;;;5030757;28;20096;-75
2023/10/07 05:47:02;;;;;;;14.07;3.10;;;17.20;99.90;;;;;;5020501;28;20069;-72
2023/10/07 05:49:31;;;;;;;11.25;2.80;;;17.20;99.90;;;;;;5025218;28;20050;-71
2023/10/07 05:51:58;;;;;;;14.95;3.50;;;17.20;99.90;;;;;;5040098;28;20049;-75
2023/10/07 05:54:28;;;;;;;15.20;3.38;;;17.20;99.90;;;;;;5032147;28;20041;-74
2023/10/07 05:57:01;;;;;;;11.55;3.05;;;16.90;99.90;;;;;;5031102;28;20068;-71
2023/10/07 05:59:32;;;;;;;11.00;2.95;;;17.10;99.90;;;;;;5033259;28;20037;-73
2023/10/07 06:02:01;;;;;;;18.67;3.75;;;17.20;99.90;;;;;;5034332;28;20053;-74
2023/10/07 06:04:28;;;;;;;16.88;4.03;;;17.20;99.90;;;;;;5032275;28;20484;-72
2023/10/07 06:06:54;;;;;;;11.70;3.35;;;17.10;99.90;;;;;;5033938;28;20079;-74
2023/10/07 06:09:21;;;;;;;13.82;3.58;;;17.10;99.90;;;;;;5033324;28;20150;-72
2023/10/07 06:11:48;;;;;;;23.10;3.97;;;17.10;99.90;;;;;;5035162;28;20508;-72
2023/10/07 06:14:18;;;;;;;12.45;3.55;;;17.10;99.90;;;;;;5035547;28;20056;-73
2023/10/07 06:16:44;;;;;;;15.75;4.00;;;17.10;99.90;;;;;;5034986;28;20499;-73
2023/10/07 06:19:13;;;;;;;16.17;3.22;;;17.10;99.90;;;;;;5034023;28;20053;-76
2023/10/07 06:21:50;;;;;;;16.25;3.55;;;17.10;99.90;;;;;;5034392;28;20092;-75
2023/10/07 06:24:30;;;;;;;16.30;3.53;;;17.10;99.90;;;;;;5033162;28;20045;-73
2023/10/07 06:26:56;;;;;;;15.38;3.67;;;17.10;99.90;;;;;;5034904;28;20045;-75
2023/10/07 06:29:22;;;;;;;14.60;4.30;;;17.10;99.90;;;;;;5033570;28;20168;-74
2023/10/07 06:34:32;;;;;;;17.33;4.18;;;17.10;99.90;;;;;;5034081;28;20060;-71
2023/10/07 06:36:59;;;;;;;14.15;3.08;;;17.10;99.90;;;;;;5030835;28;20172;-72
2023/10/07 06:39:27;;;;;;;13.95;3.60;;;17.10;99.90;;;;;;5030913;28;20048;-72
2023/10/07 06:41:57;;;;;;;13.52;4.03;;;17.20;99.90;;;;;;5032799;28;20045;-72
2023/10/07 06:44:24;;;;;;;11.68;3.22;;;17.20;99.90;;;;;;5031853;28;20366;-72
2023/10/07 06:46:55;;;;;;;10.98;2.88;;;17.10;99.90;;;;;;5033522;28;20532;-72
2023/10/07 06:49:22;;;;;;;12.80;3.58;;;17.20;99.90;;;;;;5036118;28;20057;-74
2023/10/07 06:51:54;;;;;;;15.57;3.30;;;17.20;99.90;;;;;;5035552;28;20053;-72
2023/10/07 06:54:25;;;;;;;14.18;3.80;;;17.20;99.90;;;;;;5037057;28;20111;-72
2023/10/07 06:56:51;;;;;;;11.43;3.63;;;17.20;99.90;;;;;;5053647;28;20473;-72
2023/10/07 06:59:18;;;;;;;16.92;3.83;;;17.20;99.90;;;;;;5035820;28;20090;-72
2023/10/07 07:04:11;;;;;;;20.33;4.00;;;17.30;99.90;;;;;;5036603;28;20136;-72
2023/10/07 07:06:44;;;;;;;13.45;3.67;;;17.30;99.90;;;;;;5035739;28;20485;-71
2023/10/07 07:12:03;;;;;;;14.10;4.22;;;17.30;99.90;;;;;;5036243;28;20048;-72
2023/10/07 07:14:33;;;;;;;17.85;3.40;;;17.30;99.90;;;;;;5035752;28;20049;-72
2023/10/07 07:22:31;;;;;;;16.45;3.25;;;17.40;99.90;;;;;;5036183;28;20110;-72
2023/10/07 07:24:57;;;;;;;11.95;3.40;;;17.40;99.90;;;;;;5053294;28;20048;-72
2023/10/07 07:27:24;;;;;;;11.77;3.30;;;17.50;99.90;;;;;;5053281;28;20381;-72
2023/10/07 07:29:52;;;;;;;12.85;3.40;;;17.50;99.90;;;;;;5035680;28;20044;-71
2023/10/07 07:32:18;;;;;;;15.00;3.30;;;17.50;99.90;;;;;;5054151;28;20107;-72
2023/10/07 07:34:44;;;;;;;14.07;3.25;;;17.50;99.90;;;;;;5052819;28;20137;-72
2023/10/07 07:37:10;;;;;;;12.07;3.33;;;17.50;99.90;;;;;;5035742;28;20125;-72
2023/10/07 07:39:36;;;;;;;11.77;3.45;;;17.50;99.90;;;;;;5035024;28;20144;-72
2023/10/07 07:42:37;;;;;;;14.25;3.72;;;17.60;99.90;;;;;;5052743;28;20421;-72
2023/10/07 07:44:57;;;;;;;15.80;3.70;;;17.60;99.90;;;;;;5031205;28;20068;-72
2023/10/07 07:47:24;;;;;;;17.50;5.70;;;17.50;99.90;;;;;;5035186;28;20102;-72
2023/10/07 07:49:51;;;;;;;13.85;3.70;;;17.60;99.90;;;;;;5034454;28;20059;-72
2023/10/07 07:52:17;;;;;;;17.58;4.25;;;17.60;99.90;;;;;;5035210;28;20045;-75
2023/10/07 07:54:42;;;;;;;11.63;3.38;;;17.60;99.90;;;;;;5034796;28;20090;-72
2023/10/07 07:57:08;;;;;;;16.95;4.50;;;17.60;99.90;;;;;;5041177;28;20166;-72
2023/10/07 07:59:34;;;;;;;9.40;3.03;;;17.60;99.90;;;;;;5034735;28;20041;-75
2023/10/07 08:02:12;;;;;;;14.68;3.78;;;17.60;99.90;;;;;;5051531;28;20393;-74
2023/10/07 08:04:48;;;;;;;11.88;3.92;;;17.60;99.90;;;;;;5034280;28;20481;-75
2023/10/07 08:07:27;;;;;;;13.02;4.35;;;17.70;99.90;;;;;;5034910;28;20431;-76
2023/10/07 08:10:03;;;;;;;16.13;4.72;;;17.70;99.90;;;;;;5034254;28;20427;-72
2023/10/07 08:12:31;;;;;;;;;;;17.80;99.90;;;;;;5035938;28;20404;-74
2023/10/07 08:14:58;;;;;;;15.27;3.95;;;17.80;99.90;;;;;;5034518;28;20435;-73
2023/10/07 08:17:27;;;;;;;15.10;3.80;;;17.80;99.90;;;;;;5034680;28;20041;-73
2023/10/07 08:19:54;;;;;;;13.07;4.00;;;17.90;99.90;;;;;;5034676;28;20491;-71
2023/10/07 08:22:23;;;;;;;15.00;3.90;;;17.90;99.90;;;;;;5034616;28;20063;-73
2023/10/07 08:24:49;;;;;;;13.80;4.15;;;17.90;99.90;;;;;;5030434;28;20084;-73
2023/10/07 08:30:06;;;;;;;12.82;3.60;;;18.00;99.90;;;;;;5040539;28;20041;-71
2023/10/07 08:32:43;;;;;;;12.80;3.83;;;18.00;99.90;;;;;;5034455;28;20072;-73
2023/10/07 08:35:15;;;;;;;14.13;4.18;;;17.90;99.90;;;;;;5030788;28;20056;-72
2023/10/07 08:37:45;;;;;;;18.65;10.98;;;18.00;99.90;;;;;;5034155;28;20052;-77
2023/10/07 08:40:49;;;;;;;18.25;6.30;;;18.00;99.90;;;;;;5018747;28;20435;-81
2023/10/07 08:43:04;;;;;;;11.38;4.53;;;18.00;99.90;;;;;;5027961;28;20148;-72
2023/10/07 08:45:39;;;;;;;15.50;4.38;;;18.10;99.90;;;;;;5048697;28;20148;-73
2023/10/07 08:48:15;;;;;;;18.23;4.00;;;18.10;99.90;;;;;;5031975;28;20068;-75
2023/10/07 08:50:58;;;;;;;15.00;4.45;;;18.20;99.90;;;;;;5032657;28;20664;-74
2023/10/07 08:53:24;;;;;;;15.73;4.72;;;18.30;99.90;;;;;;5027770;28;20038;-74
2023/10/07 08:55:57;;;;;;;11.23;4.32;;;18.40;99.90;;;;;;5032392;28;20040;-77
2023/10/07 08:58:27;;;;;;;19.15;5.25;;;18.40;99.90;;;;;;5031575;28;20045;-76
2023/10/07 09:00:54;;;;;;;15.75;4.53;;;18.50;99.90;;;;;;5024595;28;20045;-75
2023/10/07 09:03:26;;;;;;;13.18;4.28;;;18.50;99.90;;;;;;5019332;28;20045;-74
2023/10/07 09:05:51;;;;;;;15.63;4.60;;;18.60;99.90;;;;;;5030857;28;20045;-77
2023/10/07 09:08:22;;;;;;;16.45;4.03;;;18.50;99.90;;;;;;5032162;28;20041;-74
2023/10/07 09:10:51;;;;;;;15.43;4.43;;;18.50;99.90;;;;;;5032487;28;20049;-74
2023/10/07 09:13:27;;;;;;;15.82;4.57;;;18.60;99.90;;;;;;5032247;28;20106;-74
2023/10/07 09:15:54;;;;;;;13.02;4.18;;;18.60;99.90;;;;;;5042595;28;20420;-75
2023/10/07 09:18:28;;;;;;;13.98;4.63;;;18.50;99.90;;;;;;5031729;28;20369;-74
2023/10/07 09:20:56;;;;;;;14.32;4.68;;;18.40;99.90;;;;;;5025212;28;20056;-74
2023/10/07 09:23:24;;;;;;;20.02;5.72;;;18.40;99.90;;;;;;5032451;28;20045;-75
2023/10/07 09:25:51;;;;;;;13.38;4.47;;;18.40;99.90;;;;;;5032101;28;20058;-75
2023/10/07 09:28:30;;;;;;;19.58;5.47;;;18.40;99.90;;;;;;5033424;28;20071;-75
2023/10/07 09:31:05;;;;;;;16.02;5.72;;;18.40;99.90;;;;;;5032747;28;20045;-75
2023/10/07 09:33:41;;;;;;;15.35;5.03;;;18.40;99.90;;;;;;5034840;28;20045;-76
2023/10/07 09:41:39;;;;;;;19.55;4.78;;;18.40;99.90;;;;;;5024760;28;20056;-77
2023/10/07 09:44:26;;;;;;;17.77;4.88;;;18.50;99.90;;;;;;5054112;28;20481;-77
2023/10/07 09:46:52;;;;;;;12.32;4.22;;;18.40;99.90;;;;;;5035186;28;20155;-77
2023/10/07 09:49:25;;;;;;;15.13;4.45;;;18.40;99.90;;;;;;5037450;28;20512;-79
2023/10/07 09:52:15;;;;;;;19.05;4.60;;;18.40;99.90;;;;;;5037137;28;20084;-80
2023/10/07 09:55:20;;;;;;;19.27;6.03;;;18.40;99.90;;;;;;5037135;28;20049;-80
2023/10/07 09:58:00;;;;;;;15.10;4.65;;;18.40;99.90;;;;;;5038268;28;20579;-76
2023/10/07 10:01:02;;;;;;;16.73;4.97;;;18.50;99.90;;;;;;5037537;28;20055;-76
2023/10/07 10:04:11;;;;;;;15.75;4.45;;;18.50;99.90;;;;;;5037654;28;20045;-79
2023/10/07 10:07:11;;;;;;;11.50;4.05;;;18.50;99.90;;;;;;5037155;28;20614;-78
2023/10/07 10:12:27;;;;;;;16.75;4.85;;;18.50;99.90;;;;;;5037382;28;20135;-74
2023/10/07 10:17:48;;;;;;;15.30;4.57;;;18.50;99.90;;;;;;5036963;28;20048;-74
2023/10/07 10:20:16;;;;;;;17.33;5.10;;;18.70;99.90;;;;;;5037784;28;20135;-74
2023/10/07 10:22:53;;;;;;;16.88;4.55;;;18.70;99.90;;;;;;5036241;28;20044;-74
2023/10/07 10:25:25;;;;;;;15.32;4.47;;;18.80;99.90;;;;;;5037047;28;20048;-74
2023/10/07 10:28:03;;;;;;;13.88;4.05;;;18.80;99.90;;;;;;5036826;28;20040;-74
2023/10/07 10:30:32;;;;;;;15.45;4.60;;;18.90;99.90;;;;;;5054480;28;20037;-75
2023/10/07 10:33:08;;;;;;;15.45;6.43;;;19.10;99.90;;;;;;5036878;28;20501;-75
2023/10/07 10:35:37;;;;;;;11.20;3.90;;;19.10;99.90;;;;;;5037272;28;20064;-75
2023/10/07 10:38:09;;;;;;;14.90;5.90;;;19.20;99.90;;;;;;5035876;28;20057;-75
2023/10/07 10:40:36;;;;;;;15.95;4.90;;;19.10;99.90;;;;;;5037238;28;20045;-75
2023/10/07 10:43:02;;;;;;;13.15;5.07;;;19.00;99.90;;;;;;5036852;28;20049;-76
2023/10/07 10:45:31;;;;;;;13.45;4.35;;;19.00;99.90;;;;;;5035742;28;20435;-75
2023/10/07 10:48:01;;;;;;;14.32;4.57;;;19.00;99.90;;;;;;5032764;28;20081;-75
2023/10/07 10:50:32;;;;;;;14.85;4.20;;;19.00;99.90;;;;;;5033701;28;20057;-75
2023/10/07 10:53:01;;;;;;;14.65;3.92;;;19.10;99.90;;;;;;5033649;28;20041;-75
2023/10/07 10:55:38;;;;;;;15.63;5.95;;;19.20;99.90;;;;;;5033584;28;20099;-76
2023/10/07 10:58:19;;;;;;;13.50;3.97;;;19.40;99.90;;;;;;5031424;28;20042;-75
2023/10/07 11:00:49;;;;;;;14.18;4.47;;;19.50;99.90;;;;;;5033589;28;20053;-76
2023/10/07 11:03:20;;;;;;;13.10;4.15;;;19.60;99.90;;;;;;5033277;28;20052;-76
2023/10/07 11:05:50;;;;;;;12.65;3.72;;;20.00;99.90;;;;;;5032617;28;20088;-76
2023/10/07 11:08:22;;;;;;;20.45;4.03;;;20.60;99.90;;;;;;5032897;28;20037;-75
2023/10/07 11:10:58;;;;;;;14.45;4.22;;;20.80;99.90;;;;;;5032864;28;20045;-76
2023/10/07 11:13:25;;;;;;;10.40;4.00;;;20.60;99.90;;;;;;5032683;28;20073;-75
2023/10/07 11:15:59;;;;;;;13.30;4.05;;;20.60;99.90;;;;;;5032916;28;20464;-76
2023/10/07 11:18:25;;;;;;;13.55;4.18;;;20.60;99.90;;;;;;5034404;28;20056;-76
2023/10/07 11:20:51;;;;;;;14.02;4.30;;;20.60;99.90;;;;;;5032256;28;20049;-76
2023/10/07 11:23:20;;;;;;;11.48;4.25;;;20.50;99.90;;;;;;5032363;28;20162;-76
2023/10/07 11:25:46;;;;;;;14.90;3.97;;;20.40;99.90;;;;;;5031990;28;20171;-76
2023/10/07 11:28:22;;;;;;;16.85;3.83;;;20.40;99.90;;;;;;5032721;28;20136;-76
2023/10/07 11:30:48;;;;;;;;;;;20.80;99.90;;;;;;5033142;28;20067;-76
2023/10/07 11:33:17;;;;;;;12.25;3.75;;;21.30;99.90;;;;;;5032322;28;19921;-76
2023/10/07 11:35:47;;;;;;;15.90;4.55;;;21.70;99.90;;;;;;5033849;28;20102;-76
2023/10/07 11:38:19;;;;;;;11.07;3.75;;;21.90;99.90;;;;;;5032436;28;20041;-76
2023/10/07 11:40:45;;;;;;;15.52;4.43;;;21.80;99.90;;;;;;5032272;28;20061;-76
2023/10/07 11:43:11;;;;;;;15.02;3.97;;;21.50;99.90;;;;;;5032625;28;20034;-76
2023/10/07 11:45:37;;;;;;;11.45;3.80;;;21.20;99.90;;;;;;5032577;28;20128;-76
2023/10/07 11:48:08;;;;;;;11.63;4.13;;;20.90;99.90;;;;;;5042976;28;20057;-76
2023/10/07 11:50:37;;;;;;;13.35;4.00;;;20.80;99.90;;;;;;5035959;28;20053;-75
2023/10/07 11:53:12;;;;;;;14.55;4.13;;;20.70;99.90;;;;;;5035423;28;20060;-76
2023/10/07 11:55:37;;;;;;;16.02;3.83;;;20.60;99.90;;;;;;5034187;28;20131;-76
2023/10/07 11:58:07;;;;;;;10.82;3.95;;;20.50;99.90;;;;;;5052800;28;20140;-76
2023/10/07 12:00:34;;;;;;;10.18;3.80;;;20.30;99.90;;;;;;5035594;28;20094;-76
2023/10/07 12:03:04;;;;;;;13.13;4.53;;;20.40;99.90;;;;;;5034567;28;20550;-76
2023/10/07 12:05:31;;;;;;;11.82;4.30;;;20.30;99.90;;;;;;5035080;28;20485;-76
2023/10/07 12:08:04;;;;;;;12.07;4.18;;;20.10;99.90;;;;;;5052262;28;20099;-76
2023/10/07 12:10:36;;;;;;;14.18;4.00;;;20.20;99.90;;;;;;5035655;28;20496;-76
2023/10/07 12:13:11;;;;;;;12.15;4.22;;;20.20;99.90;;;;;;5053036;28;20044;-76
2023/10/07 12:15:42;;;;;;;17.20;4.72;;;20.20;99.90;;;;;;5034293;28;20067;-76
2023/10/07 12:18:09;;;;;;;41.67;32.50;;;20.10;99.90;;;;;;5034266;28;20452;-76
2023/10/07 12:20:35;;;;;;;11.77;4.32;;;20.10;99.90;;;;;;5052634;28;20080;-76
2023/10/07 12:23:02;;;;;;;14.43;4.35;;;20.20;99.90;;;;;;5051750;28;20072;-76
2023/10/07 12:25:30;;;;;;;11.73;4.50;;;20.30;99.90;;;;;;5035079;28;20048;-76
2023/10/07 12:27:56;;;;;;;10.95;3.88;;;20.30;99.90;;;;;;5035114;28;20506;-76
2023/10/07 12:30:22;;;;;;;13.90;4.35;;;20.40;99.90;;;;;;5052447;28;20041;-76
2023/10/07 12:32:51;;;;;;;14.70;4.90;;;20.60;99.90;;;;;;5051552;28;20435;-76
2023/10/07 12:35:18;;;;;;;13.35;4.40;;;20.40;99.90;;;;;;5052667;28;20057;-76
2023/10/07 12:37:48;;;;;;;10.52;3.90;;;20.20;99.90;;;;;;5034473;28;20041;-76
2023/10/07 12:40:17;;;;;;;12.73;3.97;;;20.10;99.90;;;;;;5035385;28;20040;-75
2023/10/07 12:42:46;;;;;;;14.60;6.20;;;19.90;99.90;;;;;;5053157;28;20075;-77
2023/10/07 12:45:13;;;;;;;15.48;5.35;;;19.60;99.90;;;;;;5033147;28;20052;-76
2023/10/07 12:47:42;;;;;;;15.43;4.90;;;19.60;99.90;;;;;;5034578;28;20067;-75
2023/10/07 12:53:08;;;;;;;17.42;4.57;;;19.30;99.90;;;;;;4991444;28;20135;-74
2023/10/07 12:55:43;;;;;;;13.35;4.25;;;19.30;99.90;;;;;;5034771;28;20147;-75
2023/10/07 12:58:15;;;;;;;17.65;4.30;;;19.30;99.90;;;;;;5033500;28;20072;-75
2023/10/07 13:00:44;;;;;;;15.10;4.50;;;19.20;99.90;;;;;;5034920;28;20053;-75
2023/10/07 13:03:12;;;;;;;12.60;4.45;;;19.10;99.90;;;;;;5034272;28;20051;-76
2023/10/07 13:05:38;;;;;;;12.90;4.35;;;19.00;99.90;;;;;;5051648;28;20033;-76
2023/10/07 13:08:17;;;;;;;14.05;4.95;;;19.00;99.90;;;;;;5038211;28;20079;-76
2023/10/07 13:10:43;;;;;;;17.55;7.53;;;19.00;99.90;;;;;;5059074;28;20612;-77
2023/10/07 13:13:13;;;;;;;15.10;5.78;;;18.90;99.90;;;;;;5040107;28;20068;-75
2023/10/07 13:15:42;;;;;;;13.50;4.32;;;18.70;99.90;;;;;;5059018;28;20037;-74
2023/10/07 13:18:12;;;;;;;14.68;4.78;;;18.80;99.90;;;;;;5040936;28;20451;-75
2023/10/07 13:20:38;;;;;;;12.13;4.90;;;18.70;99.90;;;;;;5040315;28;20044;-78
2023/10/07 13:23:05;;;;;;;12.70;4.97;;;18.70;99.90;;;;;;5040637;28;20119;-75
2023/10/07 13:25:33;;;;;;;16.50;4.63;;;18.60;99.90;;;;;;5056952;28;20545;-75
2023/10/07 13:28:00;;;;;;;16.00;4.97;;;18.70;99.90;;;;;;5040736;28;20080;-75
2023/10/07 13:30:33;;;;;;;18.92;5.20;;;18.60;99.90;;;;;;5041037;28;20049;-75
2023/10/07 13:33:00;;;;;;;14.38;5.28;;;19.20;99.90;;;;;;5047366;28;20056;-74
2023/10/07 13:35:27;;;;;;;16.23;4.57;;;18.50;99.90;;;;;;5041628;28;20048;-75
2023/10/07 13:37:56;;;;;;;15.05;5.72;;;18.50;99.90;;;;;;5040378;28;20079;-75
2023/10/07 13:40:22;;;;;;;13.90;5.50;;;18.50;99.90;;;;;;5040118;28;20519;-75
2023/10/07 13:42:54;;;;;;;11.93;5.13;;;18.40;99.90;;;;;;5040806;28;20048;-75
2023/10/07 13:45:24;;;;;;;11.60;4.45;;;18.50;99.90;;;;;;5041088;28;20515;-75
2023/10/07 13:47:51;;;;;;;15.60;5.03;;;18.30;99.90;;;;;;5057680;28;20055;-74
2023/10/07 13:50:25;;;;;;;12.63;5.13;;;18.30;99.90;;;;;;5040973;28;20135;-74
2023/10/07 13:53:11;;;;;;;10.85;4.40;;;18.30;99.90;;;;;;5040597;28;20432;-74
2023/10/07 13:58:15;;;;;;;13.10;5.13;;;18.30;99.90;;;;;;5058489;28;20503;-75